Main page
METAR-TAF:

METAR-TAF

Airports :

York Airport

York, Pennsylvania, United States

latitude: 39-55-10N, longitude: 076-52-37W, elevation: 479 ft

Current weather observation

The report was made 40 minutes ago, at 04:53 UTC
Wind 6 mph from the South
Temperature 57°F
Humidity 51%
Pressure 29.82 in. Hg
Visibility: 10 miles
Scattered clouds at a height of 7000 ft
Overcast at a height of 9000 ft

METAR: KTHV 210453Z AUTO 18005KT 10SM SCT070 OVC090 14/04 A2982 RMK AO2 SLP098 T01440044 402330144

Time: 01:33 (05:33 UTC)


TAF: missing

Weather observations and forecasts of more than 4000 airports (METAR and TAF reports).

The available stations are represented by yellow and red dots on the map.

Hover mouse over dot to see the name of the station.

Then click to see weather observations and forecasts.

To change the map : click on the green buttons with a black cross to zoom in, on the green button with a dash to zoom out, or on the green arrows for adjacent maps.


METAR-TAF: